sensor_id;sensor_type;location;lat;lon;timestamp;P1;durP1;ratioP1;P2;durP2;ratioP2
58063;SDS011;43851;55.856;37.186;2022-08-03T00:00:04;13.18;;;7.78;;
58063;SDS011;43851;55.856;37.186;2022-08-03T00:02:38;14.82;;;8.02;;
58063;SDS011;43851;55.856;37.186;2022-08-03T00:05:04;15.15;;;7.60;;
58063;SDS011;43851;55.856;37.186;2022-08-03T00:07:33;18.02;;;7.80;;
58063;SDS011;43851;55.856;37.186;2022-08-03T00:09:59;12.57;;;8.07;;
58063;SDS011;43851;55.856;37.186;2022-08-03T00:12:25;12.45;;;7.35;;
58063;SDS011;43851;55.856;37.186;2022-08-03T00:14:51;12.93;;;7.78;;
58063;SDS011;43851;55.856;37.186;2022-08-03T00:17:17;14.38;;;7.75;;
58063;SDS011;43851;55.856;37.186;2022-08-03T00:19:43;13.75;;;7.90;;
58063;SDS011;43851;55.856;37.186;2022-08-03T00:22:09;16.33;;;8.48;;
58063;SDS011;43851;55.856;37.186;2022-08-03T00:24:35;16.88;;;7.93;;
58063;SDS011;43851;55.856;37.186;2022-08-03T00:27:01;14.25;;;7.38;;
58063;SDS011;43851;55.856;37.186;2022-08-03T00:29:26;14.25;;;8.00;;
58063;SDS011;43851;55.856;37.186;2022-08-03T00:31:52;13.05;;;7.80;;
58063;SDS011;43851;55.856;37.186;2022-08-03T00:34:18;15.63;;;7.93;;
58063;SDS011;43851;55.856;37.186;2022-08-03T00:36:44;16.25;;;7.68;;
58063;SDS011;43851;55.856;37.186;2022-08-03T00:39:10;18.00;;;8.43;;
58063;SDS011;43851;55.856;37.186;2022-08-03T00:41:36;14.73;;;8.45;;
58063;SDS011;43851;55.856;37.186;2022-08-03T00:44:02;19.48;;;9.35;;
58063;SDS011;43851;55.856;37.186;2022-08-03T00:46:28;11.35;;;7.57;;
58063;SDS011;43851;55.856;37.186;2022-08-03T00:48:53;10.77;;;8.00;;
58063;SDS011;43851;55.856;37.186;2022-08-03T00:51:19;10.93;;;7.03;;
58063;SDS011;43851;55.856;37.186;2022-08-03T00:53:46;15.68;;;8.40;;
58063;SDS011;43851;55.856;37.186;2022-08-03T00:56:13;11.52;;;8.05;;
58063;SDS011;43851;55.856;37.186;2022-08-03T00:58:39;13.20;;;8.50;;
58063;SDS011;43851;55.856;37.186;2022-08-03T01:01:07;19.02;;;8.57;;
58063;SDS011;43851;55.856;37.186;2022-08-03T01:03:33;12.77;;;8.18;;
58063;SDS011;43851;55.856;37.186;2022-08-03T01:06:03;20.17;;;10.05;;
58063;SDS011;43851;55.856;37.186;2022-08-03T01:08:43;15.98;;;8.90;;
58063;SDS011;43851;55.856;37.186;2022-08-03T01:11:30;15.82;;;8.82;;
58063;SDS011;43851;55.856;37.186;2022-08-03T01:16:42;12.38;;;8.20;;
58063;SDS011;43851;55.856;37.186;2022-08-03T01:19:59;12.68;;;8.23;;
58063;SDS011;43851;55.856;37.186;2022-08-03T01:30:41;14.80;;;7.90;;
58063;SDS011;43851;55.856;37.186;2022-08-03T01:35:53;16.80;;;9.15;;
58063;SDS011;43851;55.856;37.186;2022-08-03T01:38:30;13.35;;;7.78;;
58063;SDS011;43851;55.856;37.186;2022-08-03T01:41:03;18.48;;;8.88;;
58063;SDS011;43851;55.856;37.186;2022-08-03T01:43:31;15.48;;;8.23;;
58063;SDS011;43851;55.856;37.186;2022-08-03T01:45:59;15.20;;;8.85;;
58063;SDS011;43851;55.856;37.186;2022-08-03T01:48:27;17.38;;;7.72;;
58063;SDS011;43851;55.856;37.186;2022-08-03T01:50:54;17.75;;;8.25;;
58063;SDS011;43851;55.856;37.186;2022-08-03T01:53:22;11.77;;;8.07;;
58063;SDS011;43851;55.856;37.186;2022-08-03T01:55:51;14.23;;;7.90;;
58063;SDS011;43851;55.856;37.186;2022-08-03T01:58:19;14.23;;;8.30;;
58063;SDS011;43851;55.856;37.186;2022-08-03T02:00:49;12.20;;;8.15;;
58063;SDS011;43851;55.856;37.186;2022-08-03T02:03:16;8.63;;;7.60;;
58063;SDS011;43851;55.856;37.186;2022-08-03T02:05:45;15.15;;;9.18;;
58063;SDS011;43851;55.856;37.186;2022-08-03T02:08:12;14.38;;;8.38;;
58063;SDS011;43851;55.856;37.186;2022-08-03T02:10:42;12.50;;;8.88;;
58063;SDS011;43851;55.856;37.186;2022-08-03T02:13:10;15.13;;;8.60;;
58063;SDS011;43851;55.856;37.186;2022-08-03T02:15:37;15.73;;;9.05;;
58063;SDS011;43851;55.856;37.186;2022-08-03T02:18:05;12.25;;;9.30;;
58063;SDS011;43851;55.856;37.186;2022-08-03T02:20:33;20.17;;;8.18;;
58063;SDS011;43851;55.856;37.186;2022-08-03T02:23:02;15.75;;;9.15;;
58063;SDS011;43851;55.856;37.186;2022-08-03T02:25:28;17.45;;;7.97;;
58063;SDS011;43851;55.856;37.186;2022-08-03T02:27:56;12.10;;;7.97;;
58063;SDS011;43851;55.856;37.186;2022-08-03T02:30:28;13.63;;;7.35;;
58063;SDS011;43851;55.856;37.186;2022-08-03T02:33:02;15.07;;;7.95;;
58063;SDS011;43851;55.856;37.186;2022-08-03T02:35:32;13.13;;;7.93;;
58063;SDS011;43851;55.856;37.186;2022-08-03T02:38:00;18.58;;;8.23;;
58063;SDS011;43851;55.856;37.186;2022-08-03T02:40:28;15.32;;;8.23;;
58063;SDS011;43851;55.856;37.186;2022-08-03T02:42:57;14.43;;;8.23;;
58063;SDS011;43851;55.856;37.186;2022-08-03T02:45:25;11.93;;;7.82;;
58063;SDS011;43851;55.856;37.186;2022-08-03T02:47:55;15.23;;;7.00;;
58063;SDS011;43851;55.856;37.186;2022-08-03T02:50:27;15.50;;;8.38;;
58063;SDS011;43851;55.856;37.186;2022-08-03T02:52:55;13.00;;;7.80;;
58063;SDS011;43851;55.856;37.186;2022-08-03T02:55:22;12.25;;;7.20;;
58063;SDS011;43851;55.856;37.186;2022-08-03T02:57:50;16.25;;;7.78;;
58063;SDS011;43851;55.856;37.186;2022-08-03T03:00:18;13.30;;;7.75;;
58063;SDS011;43851;55.856;37.186;2022-08-03T03:02:44;13.43;;;7.35;;
58063;SDS011;43851;55.856;37.186;2022-08-03T03:05:10;10.07;;;6.75;;
58063;SDS011;43851;55.856;37.186;2022-08-03T03:07:37;10.57;;;7.45;;
58063;SDS011;43851;55.856;37.186;2022-08-03T03:10:05;11.23;;;7.30;;
58063;SDS011;43851;55.856;37.186;2022-08-03T03:12:32;15.85;;;7.63;;
58063;SDS011;43851;55.856;37.186;2022-08-03T03:14:59;13.48;;;7.90;;
58063;SDS011;43851;55.856;37.186;2022-08-03T03:17:25;15.05;;;7.55;;
58063;SDS011;43851;55.856;37.186;2022-08-03T03:19:52;15.48;;;8.02;;
58063;SDS011;43851;55.856;37.186;2022-08-03T03:22:18;13.98;;;8.20;;
58063;SDS011;43851;55.856;37.186;2022-08-03T03:24:46;12.90;;;8.50;;
58063;SDS011;43851;55.856;37.186;2022-08-03T03:27:13;14.90;;;8.20;;
58063;SDS011;43851;55.856;37.186;2022-08-03T03:29:39;12.77;;;8.27;;
58063;SDS011;43851;55.856;37.186;2022-08-03T03:32:06;12.48;;;7.85;;
58063;SDS011;43851;55.856;37.186;2022-08-03T03:34:32;11.30;;;7.70;;
58063;SDS011;43851;55.856;37.186;2022-08-03T03:36:58;18.48;;;7.82;;
58063;SDS011;43851;55.856;37.186;2022-08-03T03:39:25;12.30;;;7.53;;
58063;SDS011;43851;55.856;37.186;2022-08-03T03:41:51;12.68;;;7.93;;
58063;SDS011;43851;55.856;37.186;2022-08-03T03:44:17;19.63;;;8.80;;
58063;SDS011;43851;55.856;37.186;2022-08-03T03:46:43;12.57;;;8.18;;
58063;SDS011;43851;55.856;37.186;2022-08-03T03:49:09;11.93;;;8.35;;
58063;SDS011;43851;55.856;37.186;2022-08-03T03:51:35;17.60;;;7.82;;
58063;SDS011;43851;55.856;37.186;2022-08-03T03:54:02;14.68;;;7.25;;
58063;SDS011;43851;55.856;37.186;2022-08-03T03:56:31;9.95;;;7.75;;
58063;SDS011;43851;55.856;37.186;2022-08-03T03:58:57;16.23;;;7.95;;
58063;SDS011;43851;55.856;37.186;2022-08-03T04:01:23;13.52;;;8.52;;
58063;SDS011;43851;55.856;37.186;2022-08-03T04:03:50;15.25;;;9.15;;
58063;SDS011;43851;55.856;37.186;2022-08-03T04:06:15;13.40;;;9.32;;
58063;SDS011;43851;55.856;37.186;2022-08-03T04:09:01;10.50;;;8.77;;
58063;SDS011;43851;55.856;37.186;2022-08-03T04:11:53;17.83;;;8.75;;
58063;SDS011;43851;55.856;37.186;2022-08-03T04:14:23;14.82;;;8.18;;
58063;SDS011;43851;55.856;37.186;2022-08-03T04:16:56;13.20;;;8.07;;
58063;SDS011;43851;55.856;37.186;2022-08-03T04:19:34;12.82;;;8.77;;
58063;SDS011;43851;55.856;37.186;2022-08-03T04:22:06;13.35;;;9.05;;
58063;SDS011;43851;55.856;37.186;2022-08-03T04:24:40;14.43;;;8.98;;
58063;SDS011;43851;55.856;37.186;2022-08-03T04:27:10;12.63;;;8.30;;
58063;SDS011;43851;55.856;37.186;2022-08-03T04:29:38;12.43;;;8.60;;
58063;SDS011;43851;55.856;37.186;2022-08-03T04:32:08;17.33;;;8.88;;
58063;SDS011;43851;55.856;37.186;2022-08-03T04:34:35;14.18;;;9.13;;
58063;SDS011;43851;55.856;37.186;2022-08-03T04:37:02;12.73;;;8.50;;
58063;SDS011;43851;55.856;37.186;2022-08-03T04:39:36;14.15;;;8.15;;
58063;SDS011;43851;55.856;37.186;2022-08-03T04:42:05;11.77;;;8.00;;
58063;SDS011;43851;55.856;37.186;2022-08-03T04:44:41;16.38;;;8.00;;
58063;SDS011;43851;55.856;37.186;2022-08-03T04:47:08;14.23;;;8.65;;
58063;SDS011;43851;55.856;37.186;2022-08-03T04:49:37;16.65;;;8.85;;
58063;SDS011;43851;55.856;37.186;2022-08-03T04:52:05;14.38;;;8.07;;
58063;SDS011;43851;55.856;37.186;2022-08-03T04:54:42;9.23;;;7.35;;
58063;SDS011;43851;55.856;37.186;2022-08-03T04:57:09;14.80;;;7.78;;
58063;SDS011;43851;55.856;37.186;2022-08-03T04:59:35;14.35;;;7.45;;
58063;SDS011;43851;55.856;37.186;2022-08-03T05:02:01;12.50;;;7.38;;
58063;SDS011;43851;55.856;37.186;2022-08-03T05:04:28;13.90;;;7.80;;
58063;SDS011;43851;55.856;37.186;2022-08-03T05:06:54;14.30;;;7.95;;
58063;SDS011;43851;55.856;37.186;2022-08-03T05:09:19;10.85;;;8.23;;
58063;SDS011;43851;55.856;37.186;2022-08-03T05:11:45;12.10;;;8.55;;
58063;SDS011;43851;55.856;37.186;2022-08-03T05:14:11;8.85;;;7.15;;
58063;SDS011;43851;55.856;37.186;2022-08-03T05:16:37;10.98;;;7.10;;
58063;SDS011;43851;55.856;37.186;2022-08-03T05:19:02;13.20;;;6.55;;
58063;SDS011;43851;55.856;37.186;2022-08-03T05:21:28;10.18;;;7.43;;
58063;SDS011;43851;55.856;37.186;2022-08-03T05:23:54;13.43;;;7.88;;
58063;SDS011;43851;55.856;37.186;2022-08-03T05:26:20;11.05;;;7.00;;
58063;SDS011;43851;55.856;37.186;2022-08-03T05:28:45;11.57;;;6.40;;
58063;SDS011;43851;55.856;37.186;2022-08-03T05:31:11;10.55;;;6.30;;
58063;SDS011;43851;55.856;37.186;2022-08-03T05:33:38;10.90;;;5.68;;
58063;SDS011;43851;55.856;37.186;2022-08-03T05:36:04;15.38;;;6.30;;
58063;SDS011;43851;55.856;37.186;2022-08-03T05:38:31;13.40;;;5.45;;
58063;SDS011;43851;55.856;37.186;2022-08-03T05:40:57;9.95;;;5.68;;
58063;SDS011;43851;55.856;37.186;2022-08-03T05:43:23;13.20;;;5.80;;
58063;SDS011;43851;55.856;37.186;2022-08-03T05:45:49;9.77;;;5.78;;
58063;SDS011;43851;55.856;37.186;2022-08-03T05:48:15;6.20;;;5.60;;
58063;SDS011;43851;55.856;37.186;2022-08-03T05:50:41;8.93;;;5.50;;
58063;SDS011;43851;55.856;37.186;2022-08-03T05:53:06;7.22;;;5.32;;
58063;SDS011;43851;55.856;37.186;2022-08-03T05:55:32;10.93;;;4.60;;
58063;SDS011;43851;55.856;37.186;2022-08-03T05:57:58;7.38;;;4.47;;
58063;SDS011;43851;55.856;37.186;2022-08-03T06:00:24;8.55;;;4.85;;
58063;SDS011;43851;55.856;37.186;2022-08-03T06:02:50;12.98;;;5.13;;
58063;SDS011;43851;55.856;37.186;2022-08-03T06:05:15;6.60;;;4.35;;
58063;SDS011;43851;55.856;37.186;2022-08-03T06:07:41;9.00;;;5.20;;
58063;SDS011;43851;55.856;37.186;2022-08-03T06:10:07;10.50;;;4.95;;
58063;SDS011;43851;55.856;37.186;2022-08-03T06:12:33;7.07;;;4.75;;
58063;SDS011;43851;55.856;37.186;2022-08-03T06:15:03;9.85;;;4.55;;
58063;SDS011;43851;55.856;37.186;2022-08-03T06:17:30;7.95;;;4.38;;
58063;SDS011;43851;55.856;37.186;2022-08-03T06:19:56;7.50;;;4.18;;
58063;SDS011;43851;55.856;37.186;2022-08-03T06:22:22;6.22;;;4.25;;
58063;SDS011;43851;55.856;37.186;2022-08-03T06:24:47;7.65;;;4.40;;
58063;SDS011;43851;55.856;37.186;2022-08-03T06:27:13;12.38;;;4.95;;
58063;SDS011;43851;55.856;37.186;2022-08-03T06:29:39;10.73;;;4.45;;
58063;SDS011;43851;55.856;37.186;2022-08-03T06:32:08;10.18;;;4.47;;
58063;SDS011;43851;55.856;37.186;2022-08-03T06:34:40;8.27;;;4.40;;
58063;SDS011;43851;55.856;37.186;2022-08-03T06:37:06;8.18;;;4.85;;
58063;SDS011;43851;55.856;37.186;2022-08-03T06:39:32;14.00;;;4.47;;
58063;SDS011;43851;55.856;37.186;2022-08-03T06:41:58;5.72;;;4.40;;
58063;SDS011;43851;55.856;37.186;2022-08-03T06:44:24;7.95;;;4.30;;
58063;SDS011;43851;55.856;37.186;2022-08-03T06:46:50;7.65;;;3.83;;
58063;SDS011;43851;55.856;37.186;2022-08-03T06:49:16;9.73;;;3.78;;
58063;SDS011;43851;55.856;37.186;2022-08-03T06:51:43;14.93;;;3.75;;
58063;SDS011;43851;55.856;37.186;2022-08-03T06:54:08;8.10;;;3.58;;
58063;SDS011;43851;55.856;37.186;2022-08-03T06:56:35;8.40;;;3.30;;
58063;SDS011;43851;55.856;37.186;2022-08-03T06:59:01;10.30;;;3.78;;
58063;SDS011;43851;55.856;37.186;2022-08-03T07:01:26;6.85;;;3.53;;
58063;SDS011;43851;55.856;37.186;2022-08-03T07:03:52;5.53;;;3.40;;
58063;SDS011;43851;55.856;37.186;2022-08-03T07:06:19;4.88;;;3.17;;
58063;SDS011;43851;55.856;37.186;2022-08-03T07:08:44;6.93;;;3.47;;
58063;SDS011;43851;55.856;37.186;2022-08-03T07:11:10;6.35;;;3.40;;
58063;SDS011;43851;55.856;37.186;2022-08-03T07:13:36;7.82;;;3.22;;
58063;SDS011;43851;55.856;37.186;2022-08-03T07:16:02;6.55;;;3.35;;
58063;SDS011;43851;55.856;37.186;2022-08-03T07:18:28;5.40;;;3.30;;
58063;SDS011;43851;55.856;37.186;2022-08-03T07:20:53;7.22;;;3.83;;
58063;SDS011;43851;55.856;37.186;2022-08-03T07:23:19;14.30;;;4.03;;
58063;SDS011;43851;55.856;37.186;2022-08-03T07:25:45;6.75;;;3.65;;
58063;SDS011;43851;55.856;37.186;2022-08-03T07:28:11;5.72;;;2.85;;
58063;SDS011;43851;55.856;37.186;2022-08-03T07:30:37;7.80;;;3.88;;
58063;SDS011;43851;55.856;37.186;2022-08-03T07:33:03;4.70;;;3.47;;
58063;SDS011;43851;55.856;37.186;2022-08-03T07:35:28;5.80;;;2.97;;
58063;SDS011;43851;55.856;37.186;2022-08-03T07:37:54;7.70;;;3.80;;
58063;SDS011;43851;55.856;37.186;2022-08-03T07:40:20;6.60;;;3.45;;
58063;SDS011;43851;55.856;37.186;2022-08-03T07:42:46;5.63;;;2.92;;
58063;SDS011;43851;55.856;37.186;2022-08-03T07:45:12;6.45;;;3.00;;
58063;SDS011;43851;55.856;37.186;2022-08-03T07:47:38;6.22;;;3.08;;
58063;SDS011;43851;55.856;37.186;2022-08-03T07:50:04;4.18;;;3.25;;
58063;SDS011;43851;55.856;37.186;2022-08-03T07:52:31;5.95;;;3.15;;
58063;SDS011;43851;55.856;37.186;2022-08-03T07:55:24;6.63;;;3.33;;
58063;SDS011;43851;55.856;37.186;2022-08-03T07:58:04;11.00;;;2.83;;
58063;SDS011;43851;55.856;37.186;2022-08-03T08:00:32;4.47;;;2.78;;
58063;SDS011;43851;55.856;37.186;2022-08-03T08:02:58;7.50;;;3.38;;
58063;SDS011;43851;55.856;37.186;2022-08-03T08:05:26;15.15;;;3.38;;
58063;SDS011;43851;55.856;37.186;2022-08-03T08:07:53;7.32;;;3.22;;
58063;SDS011;43851;55.856;37.186;2022-08-03T08:10:20;6.20;;;3.40;;
58063;SDS011;43851;55.856;37.186;2022-08-03T08:12:46;6.40;;;2.92;;
58063;SDS011;43851;55.856;37.186;2022-08-03T08:15:12;7.60;;;2.88;;
58063;SDS011;43851;55.856;37.186;2022-08-03T08:20:15;3.47;;;3.03;;
58063;SDS011;43851;55.856;37.186;2022-08-03T08:22:43;7.03;;;3.30;;
58063;SDS011;43851;55.856;37.186;2022-08-03T08:25:08;5.43;;;3.38;;
58063;SDS011;43851;55.856;37.186;2022-08-03T08:27:43;4.93;;;3.28;;
58063;SDS011;43851;55.856;37.186;2022-08-03T08:30:13;5.93;;;3.05;;
58063;SDS011;43851;55.856;37.186;2022-08-03T08:32:41;6.80;;;3.50;;
58063;SDS011;43851;55.856;37.186;2022-08-03T08:35:07;7.07;;;3.78;;
58063;SDS011;43851;55.856;37.186;2022-08-03T08:37:34;8.65;;;3.63;;
58063;SDS011;43851;55.856;37.186;2022-08-03T08:40:00;7.60;;;3.55;;
58063;SDS011;43851;55.856;37.186;2022-08-03T08:42:29;5.93;;;3.33;;
58063;SDS011;43851;55.856;37.186;2022-08-03T08:44:55;6.82;;;3.88;;
58063;SDS011;43851;55.856;37.186;2022-08-03T08:47:22;5.78;;;3.53;;
58063;SDS011;43851;55.856;37.186;2022-08-03T08:49:52;8.63;;;3.72;;
58063;SDS011;43851;55.856;37.186;2022-08-03T08:52:21;9.27;;;4.03;;
58063;SDS011;43851;55.856;37.186;2022-08-03T08:54:50;5.55;;;3.47;;
58063;SDS011;43851;55.856;37.186;2022-08-03T08:57:20;4.05;;;3.65;;
58063;SDS011;43851;55.856;37.186;2022-08-03T08:59:50;10.65;;;3.53;;
58063;SDS011;43851;55.856;37.186;2022-08-03T09:02:19;6.80;;;3.63;;
58063;SDS011;43851;55.856;37.186;2022-08-03T09:04:45;5.53;;;3.42;;
58063;SDS011;43851;55.856;37.186;2022-08-03T09:07:13;5.40;;;3.78;;
58063;SDS011;43851;55.856;37.186;2022-08-03T09:09:38;6.35;;;3.80;;
58063;SDS011;43851;55.856;37.186;2022-08-03T09:12:04;10.65;;;3.83;;
58063;SDS011;43851;55.856;37.186;2022-08-03T09:14:30;7.93;;;4.13;;
58063;SDS011;43851;55.856;37.186;2022-08-03T09:16:57;5.90;;;3.33;;
58063;SDS011;43851;55.856;37.186;2022-08-03T09:19:28;8.68;;;3.60;;
58063;SDS011;43851;55.856;37.186;2022-08-03T09:22:09;4.82;;;3.63;;
58063;SDS011;43851;55.856;37.186;2022-08-03T09:27:20;10.45;;;3.38;;
58063;SDS011;43851;55.856;37.186;2022-08-03T09:29:47;5.68;;;3.25;;
58063;SDS011;43851;55.856;37.186;2022-08-03T09:32:14;9.13;;;3.20;;
58063;SDS011;43851;55.856;37.186;2022-08-03T09:34:40;8.90;;;3.55;;
58063;SDS011;43851;55.856;37.186;2022-08-03T09:37:13;4.88;;;3.50;;
58063;SDS011;43851;55.856;37.186;2022-08-03T09:39:40;10.23;;;3.83;;
58063;SDS011;43851;55.856;37.186;2022-08-03T09:42:13;8.48;;;3.90;;
58063;SDS011;43851;55.856;37.186;2022-08-03T09:44:42;8.75;;;3.78;;
58063;SDS011;43851;55.856;37.186;2022-08-03T09:47:11;10.23;;;3.85;;
58063;SDS011;43851;55.856;37.186;2022-08-03T09:49:38;9.05;;;3.83;;
58063;SDS011;43851;55.856;37.186;2022-08-03T09:52:15;8.30;;;3.63;;
58063;SDS011;43851;55.856;37.186;2022-08-03T09:54:43;9.95;;;3.50;;
58063;SDS011;43851;55.856;37.186;2022-08-03T09:57:19;5.88;;;3.30;;
58063;SDS011;43851;55.856;37.186;2022-08-03T09:59:46;10.55;;;3.85;;
58063;SDS011;43851;55.856;37.186;2022-08-03T10:02:25;3.80;;;3.40;;
58063;SDS011;43851;55.856;37.186;2022-08-03T10:04:52;6.60;;;3.92;;
58063;SDS011;43851;55.856;37.186;2022-08-03T10:07:20;10.30;;;3.97;;
58063;SDS011;43851;55.856;37.186;2022-08-03T10:12:25;9.27;;;3.85;;
58063;SDS011;43851;55.856;37.186;2022-08-03T10:14:52;5.65;;;3.30;;
58063;SDS011;43851;55.856;37.186;2022-08-03T10:17:19;11.57;;;3.55;;
58063;SDS011;43851;55.856;37.186;2022-08-03T10:19:46;6.47;;;3.83;;
58063;SDS011;43851;55.856;37.186;2022-08-03T10:27:46;8.50;;;4.10;;
58063;SDS011;43851;55.856;37.186;2022-08-03T10:30:16;5.72;;;3.58;;
58063;SDS011;43851;55.856;37.186;2022-08-03T10:32:42;5.78;;;3.67;;
58063;SDS011;43851;55.856;37.186;2022-08-03T10:35:13;8.23;;;4.25;;
58063;SDS011;43851;55.856;37.186;2022-08-03T10:37:43;8.95;;;5.03;;
58063;SDS011;43851;55.856;37.186;2022-08-03T10:40:14;8.00;;;4.18;;
58063;SDS011;43851;55.856;37.186;2022-08-03T10:42:44;9.30;;;3.85;;
58063;SDS011;43851;55.856;37.186;2022-08-03T10:45:18;7.07;;;4.40;;
58063;SDS011;43851;55.856;37.186;2022-08-03T10:47:54;9.85;;;4.22;;
58063;SDS011;43851;55.856;37.186;2022-08-03T10:50:22;8.50;;;4.30;;
58063;SDS011;43851;55.856;37.186;2022-08-03T10:52:56;7.70;;;4.45;;
58063;SDS011;43851;55.856;37.186;2022-08-03T11:01:00;6.07;;;4.70;;
58063;SDS011;43851;55.856;37.186;2022-08-03T11:03:27;5.93;;;4.20;;
58063;SDS011;43851;55.856;37.186;2022-08-03T11:05:55;7.28;;;4.45;;
58063;SDS011;43851;55.856;37.186;2022-08-03T11:08:41;14.20;;;5.03;;
58063;SDS011;43851;55.856;37.186;2022-08-03T11:16:23;8.77;;;4.05;;
58063;SDS011;43851;55.856;37.186;2022-08-03T11:18:55;7.25;;;4.30;;
58063;SDS011;43851;55.856;37.186;2022-08-03T11:29:56;9.02;;;4.15;;
58063;SDS011;43851;55.856;37.186;2022-08-03T11:40:39;12.57;;;4.47;;
58063;SDS011;43851;55.856;37.186;2022-08-03T11:45:58;8.27;;;3.85;;
58063;SDS011;43851;55.856;37.186;2022-08-03T11:48:39;8.57;;;4.53;;
58063;SDS011;43851;55.856;37.186;2022-08-03T11:51:18;6.50;;;3.83;;
58063;SDS011;43851;55.856;37.186;2022-08-03T11:53:55;6.38;;;4.65;;
58063;SDS011;43851;55.856;37.186;2022-08-03T11:56:21;8.82;;;4.45;;
58063;SDS011;43851;55.856;37.186;2022-08-03T11:58:48;7.80;;;4.55;;
58063;SDS011;43851;55.856;37.186;2022-08-03T12:01:20;7.75;;;4.40;;
58063;SDS011;43851;55.856;37.186;2022-08-03T12:03:47;16.08;;;4.72;;
58063;SDS011;43851;55.856;37.186;2022-08-03T12:06:14;9.70;;;4.85;;
58063;SDS011;43851;55.856;37.186;2022-08-03T12:08:41;10.00;;;4.63;;
58063;SDS011;43851;55.856;37.186;2022-08-03T12:11:08;6.15;;;4.50;;
58063;SDS011;43851;55.856;37.186;2022-08-03T12:16:02;10.00;;;4.30;;
58063;SDS011;43851;55.856;37.186;2022-08-03T12:18:30;7.78;;;4.72;;
58063;SDS011;43851;55.856;37.186;2022-08-03T12:21:10;7.70;;;3.97;;
58063;SDS011;43851;55.856;37.186;2022-08-03T12:23:37;6.95;;;4.90;;
58063;SDS011;43851;55.856;37.186;2022-08-03T12:26:08;6.07;;;4.53;;
58063;SDS011;43851;55.856;37.186;2022-08-03T12:28:35;9.70;;;4.40;;
58063;SDS011;43851;55.856;37.186;2022-08-03T12:31:02;8.00;;;4.63;;
58063;SDS011;43851;55.856;37.186;2022-08-03T12:33:30;13.30;;;4.63;;
58063;SDS011;43851;55.856;37.186;2022-08-03T12:36:09;8.70;;;4.28;;
58063;SDS011;43851;55.856;37.186;2022-08-03T12:38:36;7.38;;;4.68;;
58063;SDS011;43851;55.856;37.186;2022-08-03T12:41:07;7.65;;;4.78;;
58063;SDS011;43851;55.856;37.186;2022-08-03T12:43:48;8.15;;;4.65;;
58063;SDS011;43851;55.856;37.186;2022-08-03T12:46:16;6.10;;;4.63;;
58063;SDS011;43851;55.856;37.186;2022-08-03T12:48:58;7.40;;;3.97;;
58063;SDS011;43851;55.856;37.186;2022-08-03T12:51:29;7.82;;;4.43;;
58063;SDS011;43851;55.856;37.186;2022-08-03T12:53:58;6.00;;;4.18;;
58063;SDS011;43851;55.856;37.186;2022-08-03T12:56:27;7.07;;;4.80;;
58063;SDS011;43851;55.856;37.186;2022-08-03T12:59:04;9.75;;;4.68;;
58063;SDS011;43851;55.856;37.186;2022-08-03T13:01:51;19.48;;;4.70;;
58063;SDS011;43851;55.856;37.186;2022-08-03T13:04:27;11.27;;;4.50;;
58063;SDS011;43851;55.856;37.186;2022-08-03T13:06:55;5.30;;;3.75;;
58063;SDS011;43851;55.856;37.186;2022-08-03T13:09:23;5.70;;;4.20;;
58063;SDS011;43851;55.856;37.186;2022-08-03T13:12:07;10.63;;;4.53;;
58063;SDS011;43851;55.856;37.186;2022-08-03T13:14:34;7.05;;;4.38;;
58063;SDS011;43851;55.856;37.186;2022-08-03T13:17:00;11.32;;;5.05;;
58063;SDS011;43851;55.856;37.186;2022-08-03T13:19:26;10.95;;;4.70;;
58063;SDS011;43851;55.856;37.186;2022-08-03T13:21:52;12.80;;;5.25;;
58063;SDS011;43851;55.856;37.186;2022-08-03T13:24:18;5.38;;;4.53;;
58063;SDS011;43851;55.856;37.186;2022-08-03T13:26:44;10.13;;;4.85;;
58063;SDS011;43851;55.856;37.186;2022-08-03T13:29:10;10.05;;;4.75;;
58063;SDS011;43851;55.856;37.186;2022-08-03T13:31:35;8.10;;;4.72;;
58063;SDS011;43851;55.856;37.186;2022-08-03T13:34:01;12.05;;;4.90;;
58063;SDS011;43851;55.856;37.186;2022-08-03T13:36:27;9.98;;;4.55;;
58063;SDS011;43851;55.856;37.186;2022-08-03T13:38:53;6.03;;;4.15;;
58063;SDS011;43851;55.856;37.186;2022-08-03T13:41:20;7.32;;;5.65;;
58063;SDS011;43851;55.856;37.186;2022-08-03T13:43:51;9.32;;;4.63;;
58063;SDS011;43851;55.856;37.186;2022-08-03T13:46:16;9.32;;;4.85;;
58063;SDS011;43851;55.856;37.186;2022-08-03T13:48:42;8.98;;;4.80;;
58063;SDS011;43851;55.856;37.186;2022-08-03T13:51:08;8.85;;;4.78;;
58063;SDS011;43851;55.856;37.186;2022-08-03T13:53:34;10.45;;;5.55;;
58063;SDS011;43851;55.856;37.186;2022-08-03T13:56:00;10.75;;;5.63;;
58063;SDS011;43851;55.856;37.186;2022-08-03T13:58:28;14.20;;;5.28;;
58063;SDS011;43851;55.856;37.186;2022-08-03T14:00:55;12.75;;;5.82;;
58063;SDS011;43851;55.856;37.186;2022-08-03T14:03:20;11.68;;;5.40;;
58063;SDS011;43851;55.856;37.186;2022-08-03T14:05:49;8.77;;;5.60;;
58063;SDS011;43851;55.856;37.186;2022-08-03T14:08:15;11.48;;;6.03;;
58063;SDS011;43851;55.856;37.186;2022-08-03T14:10:42;14.57;;;7.10;;
58063;SDS011;43851;55.856;37.186;2022-08-03T14:13:09;11.90;;;6.32;;
58063;SDS011;43851;55.856;37.186;2022-08-03T14:15:36;20.20;;;7.63;;
58063;SDS011;43851;55.856;37.186;2022-08-03T14:18:02;12.18;;;8.07;;
58063;SDS011;43851;55.856;37.186;2022-08-03T14:20:28;18.30;;;8.18;;
58063;SDS011;43851;55.856;37.186;2022-08-03T14:22:54;12.43;;;9.10;;
58063;SDS011;43851;55.856;37.186;2022-08-03T14:25:20;19.88;;;10.45;;
58063;SDS011;43851;55.856;37.186;2022-08-03T14:27:46;15.35;;;9.02;;
58063;SDS011;43851;55.856;37.186;2022-08-03T14:30:12;17.67;;;7.35;;
58063;SDS011;43851;55.856;37.186;2022-08-03T14:32:38;13.82;;;7.88;;
58063;SDS011;43851;55.856;37.186;2022-08-03T14:35:04;13.57;;;6.53;;
58063;SDS011;43851;55.856;37.186;2022-08-03T14:37:30;12.07;;;6.47;;
58063;SDS011;43851;55.856;37.186;2022-08-03T14:39:57;8.98;;;5.43;;
58063;SDS011;43851;55.856;37.186;2022-08-03T14:42:23;9.15;;;6.85;;
58063;SDS011;43851;55.856;37.186;2022-08-03T14:44:49;14.10;;;6.43;;
58063;SDS011;43851;55.856;37.186;2022-08-03T14:47:15;13.18;;;5.63;;
58063;SDS011;43851;55.856;37.186;2022-08-03T14:49:41;17.52;;;6.72;;
58063;SDS011;43851;55.856;37.186;2022-08-03T14:52:07;16.25;;;8.55;;
58063;SDS011;43851;55.856;37.186;2022-08-03T14:54:33;15.10;;;7.82;;
58063;SDS011;43851;55.856;37.186;2022-08-03T14:57:01;13.68;;;6.35;;
58063;SDS011;43851;55.856;37.186;2022-08-03T14:59:30;16.98;;;7.28;;
58063;SDS011;43851;55.856;37.186;2022-08-03T15:01:55;9.30;;;5.35;;
58063;SDS011;43851;55.856;37.186;2022-08-03T15:04:21;10.65;;;5.35;;
58063;SDS011;43851;55.856;37.186;2022-08-03T15:06:47;12.88;;;5.47;;
58063;SDS011;43851;55.856;37.186;2022-08-03T15:09:14;12.98;;;5.82;;
58063;SDS011;43851;55.856;37.186;2022-08-03T15:11:40;15.85;;;5.53;;
58063;SDS011;43851;55.856;37.186;2022-08-03T15:14:07;10.98;;;5.20;;
58063;SDS011;43851;55.856;37.186;2022-08-03T15:16:33;16.45;;;5.50;;
58063;SDS011;43851;55.856;37.186;2022-08-03T15:19:00;7.15;;;5.72;;
58063;SDS011;43851;55.856;37.186;2022-08-03T15:21:26;17.25;;;5.07;;
58063;SDS011;43851;55.856;37.186;2022-08-03T15:23:52;16.13;;;5.10;;
58063;SDS011;43851;55.856;37.186;2022-08-03T15:26:18;12.20;;;5.30;;
58063;SDS011;43851;55.856;37.186;2022-08-03T15:28:44;16.65;;;5.90;;
58063;SDS011;43851;55.856;37.186;2022-08-03T15:31:10;14.65;;;5.75;;